Terminal Aerodrome Forecast
Issued by NWS Sioux Falls, SD

Home | Current Version | Previous Version | Text Only | Print | Product List | Glossary Off
Versions: 1 2 3 4 5 6 7 8 9 10 11 12 13 14 15 16 17 18

000
FTUS43 KFSD 211726
TAFHON
TAF
KHON 211726Z 2118/2218 16018G25KT P6SM SKC
     FM220200 15014G20KT P6SM SCT120
     FM220600 15015G22KT P6SM BKN030
     FM221200 16017G24KT P6SM OVC010
      TEMPO 2216/2218 6SM -SHRA BKN012 OVC030=

USA.gov is the U.S. government's official web portal to all federal, state and local government web resources and services.